sensor_id;sensor_type;location;lat;lon;timestamp;temperature;humidity
57892;DHT22;43708;48.828;9.166;2023-03-20T00:02:24;20.80;73.20
57892;DHT22;43708;48.828;9.166;2023-03-20T00:04:50;20.80;73.30
57892;DHT22;43708;48.828;9.166;2023-03-20T00:07:16;20.80;73.30
57892;DHT22;43708;48.828;9.166;2023-03-20T00:09:42;20.80;73.30
57892;DHT22;43708;48.828;9.166;2023-03-20T00:12:13;20.80;73.30
57892;DHT22;43708;48.828;9.166;2023-03-20T00:14:40;20.80;73.30
57892;DHT22;43708;48.828;9.166;2023-03-20T00:17:10;20.80;73.30
57892;DHT22;43708;48.828;9.166;2023-03-20T00:19:42;20.80;73.30
57892;DHT22;43708;48.828;9.166;2023-03-20T00:22:07;20.80;73.30
57892;DHT22;43708;48.828;9.166;2023-03-20T00:24:33;20.80;73.30
57892;DHT22;43708;48.828;9.166;2023-03-20T00:26:59;20.80;73.30
57892;DHT22;43708;48.828;9.166;2023-03-20T00:29:26;20.70;73.20
57892;DHT22;43708;48.828;9.166;2023-03-20T00:31:55;20.70;74.00
57892;DHT22;43708;48.828;9.166;2023-03-20T00:34:23;20.70;73.20
57892;DHT22;43708;48.828;9.166;2023-03-20T00:36:52;20.70;73.20
57892;DHT22;43708;48.828;9.166;2023-03-20T00:39:18;20.70;73.20
57892;DHT22;43708;48.828;9.166;2023-03-20T00:42:01;20.70;73.20
57892;DHT22;43708;48.828;9.166;2023-03-20T00:44:42;20.70;73.20
57892;DHT22;43708;48.828;9.166;2023-03-20T00:47:12;20.70;73.20
57892;DHT22;43708;48.828;9.166;2023-03-20T00:49:39;20.70;73.20
57892;DHT22;43708;48.828;9.166;2023-03-20T00:52:05;20.70;73.10
57892;DHT22;43708;48.828;9.166;2023-03-20T00:54:31;20.70;73.10
57892;DHT22;43708;48.828;9.166;2023-03-20T00:56:59;20.70;73.10
57892;DHT22;43708;48.828;9.166;2023-03-20T00:59:29;20.70;73.10
57892;DHT22;43708;48.828;9.166;2023-03-20T01:01:56;20.70;73.10
57892;DHT22;43708;48.828;9.166;2023-03-20T01:04:23;20.70;73.10
57892;DHT22;43708;48.828;9.166;2023-03-20T01:06:48;20.70;73.10
57892;DHT22;43708;48.828;9.166;2023-03-20T01:09:14;20.70;73.10
57892;DHT22;43708;48.828;9.166;2023-03-20T01:11:40;20.70;73.00
57892;DHT22;43708;48.828;9.166;2023-03-20T01:14:12;20.70;73.00
57892;DHT22;43708;48.828;9.166;2023-03-20T01:16:39;20.80;73.00
57892;DHT22;43708;48.828;9.166;2023-03-20T01:19:05;20.80;73.00
57892;DHT22;43708;48.828;9.166;2023-03-20T01:21:30;20.80;72.90
57892;DHT22;43708;48.828;9.166;2023-03-20T01:23:56;20.80;72.90
57892;DHT22;43708;48.828;9.166;2023-03-20T01:28:57;20.80;72.70
57892;DHT22;43708;48.828;9.166;2023-03-20T01:31:23;20.80;72.70
57892;DHT22;43708;48.828;9.166;2023-03-20T01:33:48;20.80;72.70
57892;DHT22;43708;48.828;9.166;2023-03-20T01:36:15;20.80;72.70
57892;DHT22;43708;48.828;9.166;2023-03-20T01:38:42;20.80;72.60
57892;DHT22;43708;48.828;9.166;2023-03-20T01:41:13;20.90;72.70
57892;DHT22;43708;48.828;9.166;2023-03-20T01:43:41;20.90;72.60
57892;DHT22;43708;48.828;9.166;2023-03-20T01:46:15;20.90;72.60
57892;DHT22;43708;48.828;9.166;2023-03-20T01:51:22;20.90;72.60
57892;DHT22;43708;48.828;9.166;2023-03-20T01:56:19;20.90;72.60
57892;DHT22;43708;48.828;9.166;2023-03-20T01:58:49;20.90;72.70
57892;DHT22;43708;48.828;9.166;2023-03-20T02:01:16;20.90;72.70
57892;DHT22;43708;48.828;9.166;2023-03-20T02:03:46;20.90;72.70
57892;DHT22;43708;48.828;9.166;2023-03-20T02:06:13;20.90;72.80
57892;DHT22;43708;48.828;9.166;2023-03-20T02:08:46;20.90;72.80
57892;DHT22;43708;48.828;9.166;2023-03-20T02:11:12;20.90;72.80
57892;DHT22;43708;48.828;9.166;2023-03-20T02:13:39;20.90;72.90
57892;DHT22;43708;48.828;9.166;2023-03-20T02:16:13;20.90;72.90
57892;DHT22;43708;48.828;9.166;2023-03-20T02:18:42;20.90;72.90
57892;DHT22;43708;48.828;9.166;2023-03-20T02:30:38;20.80;72.90
57892;DHT22;43708;48.828;9.166;2023-03-20T02:35:52;20.80;72.90
57892;DHT22;43708;48.828;9.166;2023-03-20T02:41:31;20.80;73.10
57892;DHT22;43708;48.828;9.166;2023-03-20T02:49:32;20.70;73.00
57892;DHT22;43708;48.828;9.166;2023-03-20T02:55:11;20.70;73.00
57892;DHT22;43708;48.828;9.166;2023-03-20T02:58:13;20.70;73.00
57892;DHT22;43708;48.828;9.166;2023-03-20T03:00:55;20.70;73.00
57892;DHT22;43708;48.828;9.166;2023-03-20T03:03:34;20.70;73.00
57892;DHT22;43708;48.828;9.166;2023-03-20T03:06:09;20.70;73.10
57892;DHT22;43708;48.828;9.166;2023-03-20T03:08:39;20.70;73.00
57892;DHT22;43708;48.828;9.166;2023-03-20T03:11:08;20.70;73.10
57892;DHT22;43708;48.828;9.166;2023-03-20T03:13:38;20.60;73.10
57892;DHT22;43708;48.828;9.166;2023-03-20T03:16:21;20.60;73.10
57892;DHT22;43708;48.828;9.166;2023-03-20T03:18:56;20.60;73.10
57892;DHT22;43708;48.828;9.166;2023-03-20T03:21:23;20.60;73.10
57892;DHT22;43708;48.828;9.166;2023-03-20T03:23:51;20.60;73.10
57892;DHT22;43708;48.828;9.166;2023-03-20T03:26:21;20.60;73.10
57892;DHT22;43708;48.828;9.166;2023-03-20T03:28:53;20.70;73.10
57892;DHT22;43708;48.828;9.166;2023-03-20T03:31:21;20.70;73.10
57892;DHT22;43708;48.828;9.166;2023-03-20T03:33:51;20.70;73.10
57892;DHT22;43708;48.828;9.166;2023-03-20T03:39:21;20.70;73.00
57892;DHT22;43708;48.828;9.166;2023-03-20T03:42:27;20.70;73.00
57892;DHT22;43708;48.828;9.166;2023-03-20T03:45:28;20.70;73.00
57892;DHT22;43708;48.828;9.166;2023-03-20T03:50:30;20.70;73.00
57892;DHT22;43708;48.828;9.166;2023-03-20T03:53:00;20.70;72.90
57892;DHT22;43708;48.828;9.166;2023-03-20T03:55:30;20.70;73.00
57892;DHT22;43708;48.828;9.166;2023-03-20T03:58:09;20.70;72.90
57892;DHT22;43708;48.828;9.166;2023-03-20T04:00:36;20.70;72.90
57892;DHT22;43708;48.828;9.166;2023-03-20T04:03:06;20.70;72.90
57892;DHT22;43708;48.828;9.166;2023-03-20T04:05:34;20.70;73.70
57892;DHT22;43708;48.828;9.166;2023-03-20T04:08:02;20.70;72.90
57892;DHT22;43708;48.828;9.166;2023-03-20T04:10:28;20.70;72.90
57892;DHT22;43708;48.828;9.166;2023-03-20T04:12:54;20.70;73.70
57892;DHT22;43708;48.828;9.166;2023-03-20T04:15:19;20.70;73.00
57892;DHT22;43708;48.828;9.166;2023-03-20T04:17:48;20.60;72.90
57892;DHT22;43708;48.828;9.166;2023-03-20T04:20:14;20.60;73.00
57892;DHT22;43708;48.828;9.166;2023-03-20T04:22:40;20.60;72.90
57892;DHT22;43708;48.828;9.166;2023-03-20T04:25:07;20.60;73.00
57892;DHT22;43708;48.828;9.166;2023-03-20T04:27:33;20.60;73.00
57892;DHT22;43708;48.828;9.166;2023-03-20T04:29:59;20.60;73.00
57892;DHT22;43708;48.828;9.166;2023-03-20T04:32:25;20.60;73.00
57892;DHT22;43708;48.828;9.166;2023-03-20T04:34:50;20.60;73.00
57892;DHT22;43708;48.828;9.166;2023-03-20T04:37:16;20.60;73.00
57892;DHT22;43708;48.828;9.166;2023-03-20T04:39:42;20.60;73.10
57892;DHT22;43708;48.828;9.166;2023-03-20T04:42:08;20.60;73.10
57892;DHT22;43708;48.828;9.166;2023-03-20T04:44:34;20.60;73.10
57892;DHT22;43708;48.828;9.166;2023-03-20T04:47:00;20.60;73.10
57892;DHT22;43708;48.828;9.166;2023-03-20T04:49:25;20.60;73.00
57892;DHT22;43708;48.828;9.166;2023-03-20T04:51:51;20.60;73.10
57892;DHT22;43708;48.828;9.166;2023-03-20T04:54:17;20.60;73.10
57892;DHT22;43708;48.828;9.166;2023-03-20T04:56:43;20.50;73.00
57892;DHT22;43708;48.828;9.166;2023-03-20T04:59:08;20.60;73.10
57892;DHT22;43708;48.828;9.166;2023-03-20T05:01:34;20.60;73.10
57892;DHT22;43708;48.828;9.166;2023-03-20T05:04:00;20.60;73.00
57892;DHT22;43708;48.828;9.166;2023-03-20T05:06:27;20.60;73.00
57892;DHT22;43708;48.828;9.166;2023-03-20T05:08:52;20.60;73.00
57892;DHT22;43708;48.828;9.166;2023-03-20T05:11:18;20.60;72.90
57892;DHT22;43708;48.828;9.166;2023-03-20T05:13:44;20.60;72.90
57892;DHT22;43708;48.828;9.166;2023-03-20T05:16:09;20.70;72.90
57892;DHT22;43708;48.828;9.166;2023-03-20T05:18:35;20.60;72.90
57892;DHT22;43708;48.828;9.166;2023-03-20T05:21:01;20.70;73.00
57892;DHT22;43708;48.828;9.166;2023-03-20T05:23:27;20.70;73.00
57892;DHT22;43708;48.828;9.166;2023-03-20T05:25:52;20.70;73.00
57892;DHT22;43708;48.828;9.166;2023-03-20T05:28:18;20.70;73.00
57892;DHT22;43708;48.828;9.166;2023-03-20T05:30:44;20.70;73.00
57892;DHT22;43708;48.828;9.166;2023-03-20T05:33:09;20.70;73.00
57892;DHT22;43708;48.828;9.166;2023-03-20T05:35:35;20.70;73.00
57892;DHT22;43708;48.828;9.166;2023-03-20T05:38:00;20.70;73.00
57892;DHT22;43708;48.828;9.166;2023-03-20T05:40:26;20.70;73.10
57892;DHT22;43708;48.828;9.166;2023-03-20T05:42:52;20.70;73.10
57892;DHT22;43708;48.828;9.166;2023-03-20T05:45:18;20.70;73.10
57892;DHT22;43708;48.828;9.166;2023-03-20T05:47:43;20.70;73.10
57892;DHT22;43708;48.828;9.166;2023-03-20T05:50:10;20.70;73.10
57892;DHT22;43708;48.828;9.166;2023-03-20T05:52:36;20.70;73.10
57892;DHT22;43708;48.828;9.166;2023-03-20T05:55:02;20.70;73.20
57892;DHT22;43708;48.828;9.166;2023-03-20T05:57:27;20.70;73.20
57892;DHT22;43708;48.828;9.166;2023-03-20T05:59:53;20.70;73.20
57892;DHT22;43708;48.828;9.166;2023-03-20T06:02:19;20.70;73.20
57892;DHT22;43708;48.828;9.166;2023-03-20T06:04:44;20.70;73.20
57892;DHT22;43708;48.828;9.166;2023-03-20T06:07:11;20.70;73.20
57892;DHT22;43708;48.828;9.166;2023-03-20T06:09:36;20.70;73.30
57892;DHT22;43708;48.828;9.166;2023-03-20T06:12:02;20.70;73.30
57892;DHT22;43708;48.828;9.166;2023-03-20T06:14:28;20.70;73.30
57892;DHT22;43708;48.828;9.166;2023-03-20T06:16:53;20.70;73.30
57892;DHT22;43708;48.828;9.166;2023-03-20T06:19:20;20.70;73.30
57892;DHT22;43708;48.828;9.166;2023-03-20T06:21:46;20.70;73.30
57892;DHT22;43708;48.828;9.166;2023-03-20T06:24:12;20.70;73.30
57892;DHT22;43708;48.828;9.166;2023-03-20T06:26:38;20.70;73.40
57892;DHT22;43708;48.828;9.166;2023-03-20T06:29:03;20.70;73.40
57892;DHT22;43708;48.828;9.166;2023-03-20T06:31:29;20.70;73.50
57892;DHT22;43708;48.828;9.166;2023-03-20T06:33:55;20.70;73.50
57892;DHT22;43708;48.828;9.166;2023-03-20T06:36:21;20.60;73.40
57892;DHT22;43708;48.828;9.166;2023-03-20T06:38:47;20.60;73.50
57892;DHT22;43708;48.828;9.166;2023-03-20T06:41:12;20.60;73.50
57892;DHT22;43708;48.828;9.166;2023-03-20T06:43:38;20.60;73.50
57892;DHT22;43708;48.828;9.166;2023-03-20T06:46:04;20.60;73.60
57892;DHT22;43708;48.828;9.166;2023-03-20T06:48:31;20.60;73.60
57892;DHT22;43708;48.828;9.166;2023-03-20T06:50:57;20.50;73.60
57892;DHT22;43708;48.828;9.166;2023-03-20T06:53:23;20.60;73.70
57892;DHT22;43708;48.828;9.166;2023-03-20T06:55:49;20.50;73.60
57892;DHT22;43708;48.828;9.166;2023-03-20T06:58:16;20.50;73.60
57892;DHT22;43708;48.828;9.166;2023-03-20T07:00:42;20.50;73.60
57892;DHT22;43708;48.828;9.166;2023-03-20T07:03:08;20.50;73.50
57892;DHT22;43708;48.828;9.166;2023-03-20T07:05:34;20.50;73.50
57892;DHT22;43708;48.828;9.166;2023-03-20T07:08:00;20.50;73.50
57892;DHT22;43708;48.828;9.166;2023-03-20T07:10:25;20.50;73.50
57892;DHT22;43708;48.828;9.166;2023-03-20T07:12:51;20.50;73.50
57892;DHT22;43708;48.828;9.166;2023-03-20T07:15:17;20.50;73.50
57892;DHT22;43708;48.828;9.166;2023-03-20T07:17:43;20.50;73.50
57892;DHT22;43708;48.828;9.166;2023-03-20T07:20:09;20.60;73.50
57892;DHT22;43708;48.828;9.166;2023-03-20T07:22:36;20.50;73.50
57892;DHT22;43708;48.828;9.166;2023-03-20T07:25:02;20.50;73.50
57892;DHT22;43708;48.828;9.166;2023-03-20T07:27:27;20.50;73.50
57892;DHT22;43708;48.828;9.166;2023-03-20T07:29:53;20.50;73.50
57892;DHT22;43708;48.828;9.166;2023-03-20T07:32:19;20.50;73.40
57892;DHT22;43708;48.828;9.166;2023-03-20T07:34:45;20.50;73.40
57892;DHT22;43708;48.828;9.166;2023-03-20T07:37:12;20.50;73.40
57892;DHT22;43708;48.828;9.166;2023-03-20T07:39:37;20.60;73.40
57892;DHT22;43708;48.828;9.166;2023-03-20T07:42:03;20.60;73.40
57892;DHT22;43708;48.828;9.166;2023-03-20T07:44:29;20.60;73.40
57892;DHT22;43708;48.828;9.166;2023-03-20T07:46:55;20.60;73.30
57892;DHT22;43708;48.828;9.166;2023-03-20T07:49:21;20.60;74.10
57892;DHT22;43708;48.828;9.166;2023-03-20T07:51:47;20.60;73.30
57892;DHT22;43708;48.828;9.166;2023-03-20T07:54:13;20.60;73.30
57892;DHT22;43708;48.828;9.166;2023-03-20T07:56:39;20.60;73.30
57892;DHT22;43708;48.828;9.166;2023-03-20T07:59:05;20.60;73.30
57892;DHT22;43708;48.828;9.166;2023-03-20T08:01:31;20.60;73.30
57892;DHT22;43708;48.828;9.166;2023-03-20T08:03:56;20.60;73.30
57892;DHT22;43708;48.828;9.166;2023-03-20T08:06:22;20.60;73.30
57892;DHT22;43708;48.828;9.166;2023-03-20T08:08:50;20.60;73.30
57892;DHT22;43708;48.828;9.166;2023-03-20T08:11:17;20.60;73.30
57892;DHT22;43708;48.828;9.166;2023-03-20T08:13:43;20.60;73.40
57892;DHT22;43708;48.828;9.166;2023-03-20T08:16:09;20.60;73.40
57892;DHT22;43708;48.828;9.166;2023-03-20T08:18:35;20.60;73.40
57892;DHT22;43708;48.828;9.166;2023-03-20T08:21:00;20.50;73.50
57892;DHT22;43708;48.828;9.166;2023-03-20T08:23:26;20.50;73.60
57892;DHT22;43708;48.828;9.166;2023-03-20T08:25:52;20.50;73.60
57892;DHT22;43708;48.828;9.166;2023-03-20T08:28:21;20.50;73.60
57892;DHT22;43708;48.828;9.166;2023-03-20T08:30:47;20.50;73.60
57892;DHT22;43708;48.828;9.166;2023-03-20T08:33:15;20.50;73.70
57892;DHT22;43708;48.828;9.166;2023-03-20T08:35:41;20.50;73.70
57892;DHT22;43708;48.828;9.166;2023-03-20T08:38:11;20.50;73.70
57892;DHT22;43708;48.828;9.166;2023-03-20T08:40:42;20.50;73.70
57892;DHT22;43708;48.828;9.166;2023-03-20T08:43:08;20.50;73.70
57892;DHT22;43708;48.828;9.166;2023-03-20T08:45:34;20.50;73.70
57892;DHT22;43708;48.828;9.166;2023-03-20T08:47:59;20.50;73.70
57892;DHT22;43708;48.828;9.166;2023-03-20T08:50:25;20.50;73.60
57892;DHT22;43708;48.828;9.166;2023-03-20T08:52:51;20.50;73.60
57892;DHT22;43708;48.828;9.166;2023-03-20T08:55:17;20.60;73.60
57892;DHT22;43708;48.828;9.166;2023-03-20T08:57:42;20.60;73.60
57892;DHT22;43708;48.828;9.166;2023-03-20T09:00:10;20.60;73.50
57892;DHT22;43708;48.828;9.166;2023-03-20T09:02:38;20.60;73.50
57892;DHT22;43708;48.828;9.166;2023-03-20T09:05:03;20.60;73.50
57892;DHT22;43708;48.828;9.166;2023-03-20T09:07:29;20.60;73.50
57892;DHT22;43708;48.828;9.166;2023-03-20T09:09:55;20.60;73.50
57892;DHT22;43708;48.828;9.166;2023-03-20T09:12:21;20.60;73.50
57892;DHT22;43708;48.828;9.166;2023-03-20T09:14:47;20.60;73.50
57892;DHT22;43708;48.828;9.166;2023-03-20T09:17:12;20.60;73.60
57892;DHT22;43708;48.828;9.166;2023-03-20T09:19:38;20.60;73.60
57892;DHT22;43708;48.828;9.166;2023-03-20T09:22:06;20.60;73.60
57892;DHT22;43708;48.828;9.166;2023-03-20T09:24:32;20.60;73.60
57892;DHT22;43708;48.828;9.166;2023-03-20T09:26:58;20.60;73.60
57892;DHT22;43708;48.828;9.166;2023-03-20T09:29:25;20.60;73.50
57892;DHT22;43708;48.828;9.166;2023-03-20T09:31:52;20.60;73.50
57892;DHT22;43708;48.828;9.166;2023-03-20T09:34:18;20.60;73.50
57892;DHT22;43708;48.828;9.166;2023-03-20T09:36:43;20.60;73.50
57892;DHT22;43708;48.828;9.166;2023-03-20T09:39:09;20.70;73.60
57892;DHT22;43708;48.828;9.166;2023-03-20T09:41:35;20.60;73.50
57892;DHT22;43708;48.828;9.166;2023-03-20T09:47:04;20.60;73.60
57892;DHT22;43708;48.828;9.166;2023-03-20T09:50:03;20.60;73.60
57892;DHT22;43708;48.828;9.166;2023-03-20T09:52:57;20.60;73.60
57892;DHT22;43708;48.828;9.166;2023-03-20T09:55:39;20.60;73.70
57892;DHT22;43708;48.828;9.166;2023-03-20T09:58:31;20.60;73.70
57892;DHT22;43708;48.828;9.166;2023-03-20T10:01:00;20.60;73.70
57892;DHT22;43708;48.828;9.166;2023-03-20T10:03:41;20.60;73.70
57892;DHT22;43708;48.828;9.166;2023-03-20T10:06:15;20.60;73.70
57892;DHT22;43708;48.828;9.166;2023-03-20T10:08:41;20.60;73.70
57892;DHT22;43708;48.828;9.166;2023-03-20T10:19:31;20.60;73.60
57892;DHT22;43708;48.828;9.166;2023-03-20T10:24:39;20.60;73.60
57892;DHT22;43708;48.828;9.166;2023-03-20T10:27:19;20.60;73.70
57892;DHT22;43708;48.828;9.166;2023-03-20T10:29:59;20.60;73.80
57892;DHT22;43708;48.828;9.166;2023-03-20T10:35:21;20.60;73.80
57892;DHT22;43708;48.828;9.166;2023-03-20T10:38:05;20.50;73.80
57892;DHT22;43708;48.828;9.166;2023-03-20T10:40:40;20.50;73.80
57892;DHT22;43708;48.828;9.166;2023-03-20T10:43:18;20.50;73.80
57892;DHT22;43708;48.828;9.166;2023-03-20T10:45:49;20.60;73.80
57892;DHT22;43708;48.828;9.166;2023-03-20T10:48:34;20.60;74.60
57892;DHT22;43708;48.828;9.166;2023-03-20T10:51:02;20.60;73.70
57892;DHT22;43708;48.828;9.166;2023-03-20T10:53:48;20.60;73.70
57892;DHT22;43708;48.828;9.166;2023-03-20T10:56:38;20.70;73.70
57892;DHT22;43708;48.828;9.166;2023-03-20T11:01:51;20.70;73.60
57892;DHT22;43708;48.828;9.166;2023-03-20T11:04:16;20.70;73.60
57892;DHT22;43708;48.828;9.166;2023-03-20T11:09:40;20.70;73.60
57892;DHT22;43708;48.828;9.166;2023-03-20T11:12:15;20.60;73.60
57892;DHT22;43708;48.828;9.166;2023-03-20T11:14:42;20.60;73.60
57892;DHT22;43708;48.828;9.166;2023-03-20T11:17:09;20.60;73.50
57892;DHT22;43708;48.828;9.166;2023-03-20T11:19:38;20.70;73.60
57892;DHT22;43708;48.828;9.166;2023-03-20T11:22:23;20.70;73.40
57892;DHT22;43708;48.828;9.166;2023-03-20T11:24:53;20.80;73.40
57892;DHT22;43708;48.828;9.166;2023-03-20T11:27:24;20.80;73.30
57892;DHT22;43708;48.828;9.166;2023-03-20T11:29:51;20.80;73.30
57892;DHT22;43708;48.828;9.166;2023-03-20T11:32:32;20.90;73.30
57892;DHT22;43708;48.828;9.166;2023-03-20T11:37:54;20.90;73.30
57892;DHT22;43708;48.828;9.166;2023-03-20T11:40:38;20.90;73.30
57892;DHT22;43708;48.828;9.166;2023-03-20T11:43:10;20.90;73.30
57892;DHT22;43708;48.828;9.166;2023-03-20T11:45:39;20.90;73.20
57892;DHT22;43708;48.828;9.166;2023-03-20T11:48:11;20.90;73.30
57892;DHT22;43708;48.828;9.166;2023-03-20T11:50:47;20.90;73.20
57892;DHT22;43708;48.828;9.166;2023-03-20T11:53:29;21.00;73.30
57892;DHT22;43708;48.828;9.166;2023-03-20T11:56:24;21.00;73.30
57892;DHT22;43708;48.828;9.166;2023-03-20T12:01:57;21.00;73.20
57892;DHT22;43708;48.828;9.166;2023-03-20T12:04:28;21.00;73.20
57892;DHT22;43708;48.828;9.166;2023-03-20T12:07:30;21.00;73.20
57892;DHT22;43708;48.828;9.166;2023-03-20T12:10:13;21.10;73.20
57892;DHT22;43708;48.828;9.166;2023-03-20T12:12:50;21.10;73.20
57892;DHT22;43708;48.828;9.166;2023-03-20T12:15:25;21.10;73.20
57892;DHT22;43708;48.828;9.166;2023-03-20T12:20:53;21.00;73.20
57892;DHT22;43708;48.828;9.166;2023-03-20T12:26:17;21.00;73.30
57892;DHT22;43708;48.828;9.166;2023-03-20T12:31:30;21.10;73.10
57892;DHT22;43708;48.828;9.166;2023-03-20T12:34:36;21.10;73.00
57892;DHT22;43708;48.828;9.166;2023-03-20T12:37:08;21.20;73.00
57892;DHT22;43708;48.828;9.166;2023-03-20T12:39:51;21.30;72.80
57892;DHT22;43708;48.828;9.166;2023-03-20T12:45:19;21.40;72.50
57892;DHT22;43708;48.828;9.166;2023-03-20T12:50:37;21.50;72.40
57892;DHT22;43708;48.828;9.166;2023-03-20T12:53:19;21.40;72.50
57892;DHT22;43708;48.828;9.166;2023-03-20T12:58:46;21.40;72.50
57892;DHT22;43708;48.828;9.166;2023-03-20T13:06:19;21.40;72.60
57892;DHT22;43708;48.828;9.166;2023-03-20T13:09:17;21.30;72.60
57892;DHT22;43708;48.828;9.166;2023-03-20T13:14:30;21.30;72.80
57892;DHT22;43708;48.828;9.166;2023-03-20T13:17:28;21.30;72.80
57892;DHT22;43708;48.828;9.166;2023-03-20T13:20:18;21.40;72.70
57892;DHT22;43708;48.828;9.166;2023-03-20T13:28:29;21.60;72.40
57892;DHT22;43708;48.828;9.166;2023-03-20T13:33:55;21.50;72.40
57892;DHT22;43708;48.828;9.166;2023-03-20T13:39:09;21.50;72.40
57892;DHT22;43708;48.828;9.166;2023-03-20T13:41:36;21.50;72.40
57892;DHT22;43708;48.828;9.166;2023-03-20T13:44:04;21.60;72.40
57892;DHT22;43708;48.828;9.166;2023-03-20T13:46:40;21.60;72.30
57892;DHT22;43708;48.828;9.166;2023-03-20T13:49:21;21.50;72.40
57892;DHT22;43708;48.828;9.166;2023-03-20T13:52:11;21.50;72.50
57892;DHT22;43708;48.828;9.166;2023-03-20T14:02:50;21.30;72.70
57892;DHT22;43708;48.828;9.166;2023-03-20T14:05:28;21.30;72.70
57892;DHT22;43708;48.828;9.166;2023-03-20T14:07:56;21.30;72.80
57892;DHT22;43708;48.828;9.166;2023-03-20T14:13:10;21.20;72.90
57892;DHT22;43708;48.828;9.166;2023-03-20T14:15:37;21.20;73.00
57892;DHT22;43708;48.828;9.166;2023-03-20T14:18:15;21.20;73.00
57892;DHT22;43708;48.828;9.166;2023-03-20T14:20:42;21.20;73.00
57892;DHT22;43708;48.828;9.166;2023-03-20T14:23:32;21.10;72.90
57892;DHT22;43708;48.828;9.166;2023-03-20T14:25:59;21.10;72.90
57892;DHT22;43708;48.828;9.166;2023-03-20T14:28:27;21.10;73.00
57892;DHT22;43708;48.828;9.166;2023-03-20T14:31:25;21.10;73.00
57892;DHT22;43708;48.828;9.166;2023-03-20T14:34:16;21.10;73.00
57892;DHT22;43708;48.828;9.166;2023-03-20T14:36:59;21.10;73.80
57892;DHT22;43708;48.828;9.166;2023-03-20T14:39:53;21.10;73.00
57892;DHT22;43708;48.828;9.166;2023-03-20T14:47:50;21.10;72.90
57892;DHT22;43708;48.828;9.166;2023-03-20T14:50:30;21.10;72.90
57892;DHT22;43708;48.828;9.166;2023-03-20T14:53:02;21.10;72.80
57892;DHT22;43708;48.828;9.166;2023-03-20T14:55:33;21.10;72.80
57892;DHT22;43708;48.828;9.166;2023-03-20T15:01:07;21.10;72.80
57892;DHT22;43708;48.828;9.166;2023-03-20T15:03:33;21.10;72.80
57892;DHT22;43708;48.828;9.166;2023-03-20T15:06:04;21.10;72.80
57892;DHT22;43708;48.828;9.166;2023-03-20T15:08:33;21.10;72.80
57892;DHT22;43708;48.828;9.166;2023-03-20T15:11:13;21.10;72.80
57892;DHT22;43708;48.828;9.166;2023-03-20T15:13:40;21.10;72.80
57892;DHT22;43708;48.828;9.166;2023-03-20T15:16:09;21.00;72.70
57892;DHT22;43708;48.828;9.166;2023-03-20T15:18:44;21.00;72.80
57892;DHT22;43708;48.828;9.166;2023-03-20T15:21:15;21.00;72.80
57892;DHT22;43708;48.828;9.166;2023-03-20T15:23:43;21.00;72.70
57892;DHT22;43708;48.828;9.166;2023-03-20T15:26:09;21.00;72.80
57892;DHT22;43708;48.828;9.166;2023-03-20T15:28:36;20.90;72.70
57892;DHT22;43708;48.828;9.166;2023-03-20T15:31:03;21.00;72.70
57892;DHT22;43708;48.828;9.166;2023-03-20T15:33:38;21.00;72.70
57892;DHT22;43708;48.828;9.166;2023-03-20T15:36:14;20.90;72.60
57892;DHT22;43708;48.828;9.166;2023-03-20T15:38:41;20.90;72.60
57892;DHT22;43708;48.828;9.166;2023-03-20T15:43:51;20.90;72.60
57892;DHT22;43708;48.828;9.166;2023-03-20T15:46:17;20.90;72.60
57892;DHT22;43708;48.828;9.166;2023-03-20T15:48:48;20.90;72.60
57892;DHT22;43708;48.828;9.166;2023-03-20T15:51:14;20.90;72.70
57892;DHT22;43708;48.828;9.166;2023-03-20T15:53:44;20.90;72.70
57892;DHT22;43708;48.828;9.166;2023-03-20T15:56:18;20.90;72.70
57892;DHT22;43708;48.828;9.166;2023-03-20T15:58:50;20.90;72.70
57892;DHT22;43708;48.828;9.166;2023-03-20T16:01:22;20.90;72.60
57892;DHT22;43708;48.828;9.166;2023-03-20T16:03:49;20.90;72.60
57892;DHT22;43708;48.828;9.166;2023-03-20T16:06:19;20.90;72.60
57892;DHT22;43708;48.828;9.166;2023-03-20T16:08:58;21.00;72.60
57892;DHT22;43708;48.828;9.166;2023-03-20T16:11:32;20.90;72.60
57892;DHT22;43708;48.828;9.166;2023-03-20T16:13:59;20.90;72.60
57892;DHT22;43708;48.828;9.166;2023-03-20T16:16:26;20.90;72.60
57892;DHT22;43708;48.828;9.166;2023-03-20T16:18:54;20.90;72.50
57892;DHT22;43708;48.828;9.166;2023-03-20T16:23:47;20.90;72.60
57892;DHT22;43708;48.828;9.166;2023-03-20T16:26:21;20.90;72.60
57892;DHT22;43708;48.828;9.166;2023-03-20T16:28:53;20.90;72.70
57892;DHT22;43708;48.828;9.166;2023-03-20T16:31:24;20.90;72.70
57892;DHT22;43708;48.828;9.166;2023-03-20T16:33:52;20.90;72.70
57892;DHT22;43708;48.828;9.166;2023-03-20T16:36:29;20.90;73.50
57892;DHT22;43708;48.828;9.166;2023-03-20T16:41:36;20.80;72.70
57892;DHT22;43708;48.828;9.166;2023-03-20T16:44:20;20.80;72.70
57892;DHT22;43708;48.828;9.166;2023-03-20T16:46:57;20.80;72.80
57892;DHT22;43708;48.828;9.166;2023-03-20T16:49:46;20.80;72.80
57892;DHT22;43708;48.828;9.166;2023-03-20T16:52:14;20.80;72.90
57892;DHT22;43708;48.828;9.166;2023-03-20T16:54:40;20.80;72.90
57892;DHT22;43708;48.828;9.166;2023-03-20T16:57:14;20.80;73.00
57892;DHT22;43708;48.828;9.166;2023-03-20T16:59:41;20.80;73.10
57892;DHT22;43708;48.828;9.166;2023-03-20T17:02:31;20.80;73.10
57892;DHT22;43708;48.828;9.166;2023-03-20T17:05:02;20.80;73.20
57892;DHT22;43708;48.828;9.166;2023-03-20T17:07:29;20.70;73.10
57892;DHT22;43708;48.828;9.166;2023-03-20T17:12:40;20.70;73.20
57892;DHT22;43708;48.828;9.166;2023-03-20T17:15:09;20.70;73.20
57892;DHT22;43708;48.828;9.166;2023-03-20T17:17:38;20.70;73.20
57892;DHT22;43708;48.828;9.166;2023-03-20T17:20:04;20.70;73.30
57892;DHT22;43708;48.828;9.166;2023-03-20T17:22:29;20.60;73.20
57892;DHT22;43708;48.828;9.166;2023-03-20T17:24:55;20.60;73.30
57892;DHT22;43708;48.828;9.166;2023-03-20T17:27:22;20.60;73.30
57892;DHT22;43708;48.828;9.166;2023-03-20T17:29:48;20.60;73.30
57892;DHT22;43708;48.828;9.166;2023-03-20T17:32:17;20.60;73.30
57892;DHT22;43708;48.828;9.166;2023-03-20T17:34:42;20.60;73.30
57892;DHT22;43708;48.828;9.166;2023-03-20T17:37:12;20.60;73.30
57892;DHT22;43708;48.828;9.166;2023-03-20T17:39:38;20.60;73.40
57892;DHT22;43708;48.828;9.166;2023-03-20T17:42:14;20.60;73.40
57892;DHT22;43708;48.828;9.166;2023-03-20T17:44:41;20.60;73.50
57892;DHT22;43708;48.828;9.166;2023-03-20T17:47:12;20.60;73.50
57892;DHT22;43708;48.828;9.166;2023-03-20T17:49:38;20.60;73.50
57892;DHT22;43708;48.828;9.166;2023-03-20T17:52:07;20.60;73.60
57892;DHT22;43708;48.828;9.166;2023-03-20T17:54:34;20.60;73.60
57892;DHT22;43708;48.828;9.166;2023-03-20T17:57:00;20.60;73.30
57892;DHT22;43708;48.828;9.166;2023-03-20T17:59:26;20.40;72.80
57892;DHT22;43708;48.828;9.166;2023-03-20T18:01:55;20.40;72.80